Lincoln, NE

6:41 PM CDT on October 25, 2014 (GMT -0500)
Capitol Beach | Change Station
CLOSE
Current Station
Personal Weather Station
Location: Lincoln, NE
Elevation: 1134 ft
Nearby Weather Stations

Elev 1134 ft 40.82 °N, 96.73 °W | Updated 11 seconds ago

Clear
Clear
66.9 °F
Feels Like 66.9 °F
N
0.0
Wind Variable Wind from NE
Gusts 1.0 mph

Today
High -- | Low -- °F
--% Chance of Precip.
Yesterday
High -- | Low -- °F
Precip. -- in
7:49 AM 6:32 PM
Waxing Crescent, 5% visible
Pressure 30.03 in
Visibility 10.0 miles
Clouds Clear
Dew Point 43 °F
Humidity 42%
Rainfall 0.00 in
Snow Depth Not available.
UV 0 out of 12
Pollen 1.60 out of 12
Air Quality Not available.
Flu Activity Sporadic
METAR KLNK 252254Z 06007KT 10SM CLR 20/08 A3004 RMK AO2 SLP169 T02000083

More Conditions Fewer Conditions

Pressure 30.03 in
Visibility 10.0 miles
Clouds Clear
Dew Point 43 °F
Humidity 42%
Rainfall 0.00 in
Snow Depth Not available.
UV 0 out of 12
Pollen 1.60 out of 12
Air Quality Not available.
Flu Activity Sporadic
METAR KLNK 252254Z 06007KT 10SM CLR 20/08 A3004 RMK AO2 SLP169 T02000083

More Conditions Fewer Conditions

10-Day Weather Forecast

Almanac

Astronomy

Oct. 25, 2014 Rise Set
Actual Time 7:49 AM CDT 6:32 PM CDT
Civil Twilight 7:21 AM CDT 7:00 PM CDT
Nautical Twilight 6:49 AM CDT 7:32 PM CDT
Astronomical Twilight 6:17 AM CDT 8:04 PM CDT
Moon 9:30 AM CDT 7:55 PM CDT
Length of Visible Light 11h 38m
Length of Day
10h 42m
Tomorrow will be 2m 29s shorter.
Waxing Crescent, 5% of the Moon is Illuminated
Today
Waxing Crescent
Oct 30
First Quarter
Nov 6
Full
Nov 14
Last Quarter
Nov 22
New

Today's Extremes

State Highs State Lows

Community

WunderPhotos

Upload Photos

1,765,034 photos uploaded!

Nearby

Snow Depth

Station Depth Elevation
No new snow has been reported.

Earthquake Activity

City Distance Mag. Time & Date
No recent earthquake activity has been reported nearby.
Minimum magnitude displayed is 2.5.

Coastal Water Temperatures

Place Temperature
No Stations Reporting

Nearby Weather Stations